Accueil
METAR-TAF:

METAR-TAF

Aéroports :

Aéroport de Lugano

Lugano, Suisse

latitude: 46-00N, longitude: 008-58E, altitude: 273 m

Observation

Le bulletin a été fait il y a 34 minutes, à 19:20 UTC
Vent 1 kt de direction variable
Température 6°C
Humidité 81%
Pression 1024 hPa
Visibilité 10 km ou plus
Nuages épars à une hauteur de 12000 ft

METAR: LSZA 271920Z AUTO VRB01KT 9999 SCT120 06/03 Q1024

Heure: 20:54 (19:54 UTC)

Prévision

Le bulletin a été fait il y a 5 heures et 29 minutes, à 14:25 UTC
Prévision valable du 27 à 15 UTC au 27 à 24 UTC
Vent 2 kt de direction variable
Visibilité 10 km ou plus
Quelques nuages à une hauteur de 5000 ft

TAF: LSZA 271425Z 2715/2724 VRB02KT 9999 FEW050

Observations et prévisions météorologiques de plus de 4000 aéroports (messages METAR et TAF).

Les stations disponibles sont représentées par des disques jaunes et rouges sur la carte.

Passer la souris dessus pour voir le nom de la station.

Cliquer dessus pour voir les observations et prévisions météorologiques.

Pour changer de carte: cliquez sur les boutons verts avec une croix noire pour zoomer, sur le bouton vert avec un tiret pour effectuer un zoom arrière, ou sur les flèches vertes pour les cartes adjacentes.


METAR-TAF: